createdAt,value
2022-12-05T00:01:17.738Z,2.81
2022-12-05T00:04:20.838Z,2.82
2022-12-05T00:07:25.170Z,2.79
2022-12-05T00:10:28.224Z,2.81
2022-12-05T00:13:31.213Z,2.84
2022-12-05T00:16:36.942Z,2.84
2022-12-05T00:19:41.189Z,2.85
2022-12-05T00:22:45.737Z,2.86
2022-12-05T00:25:48.761Z,2.83
2022-12-05T00:28:52.617Z,2.82
2022-12-05T00:31:55.734Z,2.82
2022-12-05T00:34:59.022Z,2.82
2022-12-05T00:38:03.393Z,2.80
2022-12-05T00:41:08.091Z,2.86
2022-12-05T00:44:12.771Z,2.86
2022-12-05T00:47:15.752Z,2.90
2022-12-05T00:50:19.084Z,2.86
2022-12-05T00:53:23.367Z,2.84
2022-12-05T00:56:27.919Z,2.88
2022-12-05T00:59:35.190Z,2.93
2022-12-05T01:02:39.055Z,2.90
2022-12-05T01:05:43.814Z,2.95
2022-12-05T01:08:48.442Z,2.91
2022-12-05T01:11:52.898Z,2.89
2022-12-05T01:14:56.390Z,2.89
2022-12-05T01:17:59.505Z,2.90
2022-12-05T01:21:06.383Z,2.89
2022-12-05T01:24:11.455Z,2.92
2022-12-05T01:27:14.523Z,2.94
2022-12-05T01:30:17.829Z,2.93
2022-12-05T01:33:20.800Z,2.92
2022-12-05T01:36:27.367Z,2.92
2022-12-05T01:39:31.683Z,2.93
2022-12-05T01:42:34.914Z,2.95
2022-12-05T01:45:41.181Z,2.92
2022-12-05T01:48:44.574Z,2.95
2022-12-05T01:51:51.469Z,2.92
2022-12-05T01:54:59.743Z,2.93
2022-12-05T01:58:04.230Z,2.93
2022-12-05T02:01:07.356Z,2.94
2022-12-05T02:04:11.958Z,2.92
2022-12-05T02:07:15.152Z,2.93
2022-12-05T02:10:20.486Z,2.93
2022-12-05T02:13:47.758Z,2.91
2022-12-05T02:17:03.766Z,2.89
2022-12-05T02:20:31.639Z,2.89
2022-12-05T02:23:58.971Z,2.92
2022-12-05T02:27:22.082Z,2.93
2022-12-05T02:30:27.900Z,2.90
2022-12-05T02:33:39.083Z,2.90
2022-12-05T02:36:49.429Z,2.91
2022-12-05T02:39:57.968Z,2.95
2022-12-05T02:43:04.785Z,2.94
2022-12-05T02:46:14.010Z,2.90
2022-12-05T02:49:23.935Z,2.92
2022-12-05T02:52:28.785Z,2.94
2022-12-05T02:55:33.385Z,2.95
2022-12-05T02:58:43.169Z,2.97
2022-12-05T03:01:49.661Z,2.95
2022-12-05T03:04:53.189Z,2.90
2022-12-05T03:07:59.572Z,2.91
2022-12-05T03:11:04.518Z,2.94
2022-12-05T03:14:14.565Z,2.95
2022-12-05T03:17:24.086Z,2.96
2022-12-05T03:20:34.302Z,2.95
2022-12-05T03:23:46.073Z,2.94
2022-12-05T03:26:59.311Z,2.96
2022-12-05T03:30:07.702Z,2.95
2022-12-05T03:33:15.634Z,2.94
2022-12-05T03:36:23.844Z,2.99
2022-12-05T03:39:31.423Z,2.98
2022-12-05T03:42:37.427Z,2.95
2022-12-05T03:45:46.210Z,2.99
2022-12-05T03:48:55.959Z,2.94
2022-12-05T03:52:09.271Z,2.93
2022-12-05T03:55:14.010Z,2.94
2022-12-05T03:58:24.145Z,2.95
2022-12-05T04:01:30.990Z,2.96
2022-12-05T04:04:40.450Z,2.94
2022-12-05T04:07:46.649Z,2.94
2022-12-05T04:10:52.812Z,2.92
2022-12-05T04:14:01.054Z,2.96
2022-12-05T04:17:09.289Z,3.00
2022-12-05T04:20:35.459Z,3.03
2022-12-05T04:23:41.401Z,2.99
2022-12-05T04:26:52.905Z,3.02
2022-12-05T04:30:04.262Z,3.03
2022-12-05T04:33:11.930Z,2.98
2022-12-05T04:36:21.625Z,3.00
2022-12-05T04:39:32.384Z,2.99
2022-12-05T04:42:37.733Z,3.03
2022-12-05T04:45:42.738Z,3.02
2022-12-05T04:48:54.335Z,3.01
2022-12-05T04:52:05.406Z,3.00
2022-12-05T04:55:15.299Z,3.01
2022-12-05T04:58:23.014Z,3.01
2022-12-05T05:01:31.953Z,3.02
2022-12-05T05:04:39.217Z,3.01
2022-12-05T05:07:49.313Z,2.98
2022-12-05T05:11:05.641Z,2.97
2022-12-05T05:14:08.899Z,2.99
2022-12-05T05:17:11.815Z,3.02
2022-12-05T05:20:27.277Z,3.05
2022-12-05T05:23:32.047Z,2.99
2022-12-05T05:26:38.261Z,3.04
2022-12-05T05:29:41.336Z,3.06
2022-12-05T05:32:44.376Z,3.06
2022-12-05T05:35:47.437Z,3.04
2022-12-05T05:38:54.203Z,3.03
2022-12-05T05:41:57.137Z,3.03
2022-12-05T05:45:00.124Z,3.08
2022-12-05T05:48:03.111Z,3.06
2022-12-05T05:51:08.486Z,3.07
2022-12-05T05:54:13.009Z,3.02
2022-12-05T05:57:20.389Z,3.04
2022-12-05T06:00:23.869Z,3.02
2022-12-05T06:03:27.451Z,3.05
2022-12-05T06:06:30.541Z,3.06
2022-12-05T06:09:35.296Z,3.01
2022-12-05T06:12:38.269Z,3.06
2022-12-05T06:15:41.385Z,3.05
2022-12-05T06:18:44.896Z,3.09
2022-12-05T06:21:50.276Z,3.08
2022-12-05T06:24:54.677Z,3.08
2022-12-05T06:27:57.837Z,3.08
2022-12-05T06:31:00.886Z,3.10
2022-12-05T06:34:05.213Z,3.06
2022-12-05T06:37:08.611Z,3.04
2022-12-05T06:40:14.264Z,3.06
2022-12-05T06:43:17.238Z,3.10
2022-12-05T06:46:20.289Z,3.10
2022-12-05T06:49:31.578Z,3.08
2022-12-05T06:52:35.769Z,3.06
2022-12-05T06:55:40.096Z,3.06
2022-12-05T06:58:43.592Z,3.05
2022-12-05T07:01:47.111Z,3.08
2022-12-05T07:04:50.252Z,3.07
2022-12-05T07:07:53.565Z,3.08
2022-12-05T07:11:00.779Z,3.08
2022-12-05T07:14:14.748Z,3.12
2022-12-05T07:17:22.825Z,3.11
2022-12-05T07:20:30.252Z,3.10
2022-12-05T07:23:42.517Z,3.12
2022-12-05T07:26:46.878Z,3.15
2022-12-05T07:29:52.156Z,3.17
2022-12-05T07:32:55.903Z,3.14
2022-12-05T07:36:02.991Z,3.09
2022-12-05T07:39:06.299Z,3.08
2022-12-05T07:42:10.811Z,3.09
2022-12-05T07:45:13.913Z,3.08
2022-12-05T07:48:18.743Z,3.06
2022-12-05T07:51:24.473Z,3.06
2022-12-05T07:54:27.802Z,3.09
2022-12-05T07:57:32.716Z,3.12
2022-12-05T08:00:35.728Z,3.08
2022-12-05T08:03:39.535Z,3.11
2022-12-05T08:06:42.576Z,3.07
2022-12-05T08:09:48.761Z,3.07
2022-12-05T08:12:54.845Z,3.06
2022-12-05T08:16:04.384Z,3.12
2022-12-05T08:19:12.858Z,3.09
2022-12-05T08:22:15.991Z,3.09
2022-12-05T08:25:19.039Z,3.10
2022-12-05T08:28:23.362Z,3.10
2022-12-05T08:31:29.016Z,3.09
2022-12-05T08:34:32.339Z,3.06
2022-12-05T08:37:35.401Z,3.07
2022-12-05T08:40:38.609Z,3.03
2022-12-05T08:43:43.498Z,3.02
2022-12-05T08:46:49.453Z,3.02
2022-12-05T08:49:54.273Z,3.05
2022-12-05T08:52:58.441Z,3.08
2022-12-05T08:56:02.638Z,3.08
2022-12-05T08:59:07.766Z,3.09
2022-12-05T09:02:11.899Z,3.11
2022-12-05T09:05:27.407Z,3.11
2022-12-05T09:08:34.092Z,3.06
2022-12-05T09:11:41.466Z,3.09
2022-12-05T09:14:46.154Z,3.06
2022-12-05T09:17:49.615Z,3.08
2022-12-05T09:20:52.689Z,3.07
2022-12-05T09:23:56.510Z,3.08
2022-12-05T09:27:00.343Z,3.09
2022-12-05T09:30:06.360Z,3.06
2022-12-05T09:33:11.194Z,3.06
2022-12-05T09:36:17.436Z,3.08
2022-12-05T09:39:21.320Z,3.06
2022-12-05T09:42:46.541Z,3.11
2022-12-05T09:45:59.464Z,3.06
2022-12-05T09:49:06.907Z,3.05
2022-12-05T09:52:12.790Z,3.08
2022-12-05T09:55:19.962Z,3.10
2022-12-05T09:58:41.044Z,3.11
2022-12-05T10:01:58.708Z,3.13
2022-12-05T10:05:10.841Z,3.12
2022-12-05T10:08:24.678Z,3.12
2022-12-05T10:11:36.217Z,3.15
2022-12-05T10:14:52.368Z,3.21
2022-12-05T10:18:00.936Z,3.25
2022-12-05T10:21:18.364Z,3.28
2022-12-05T10:24:30.941Z,3.25
2022-12-05T10:27:40.569Z,3.24
2022-12-05T10:30:47.140Z,3.29
2022-12-05T10:33:59.654Z,3.28
2022-12-05T10:37:11.550Z,3.28
2022-12-05T10:40:15.595Z,3.29
2022-12-05T10:43:27.461Z,3.34
2022-12-05T10:46:31.201Z,3.41
2022-12-05T10:49:36.254Z,3.43
2022-12-05T10:52:39.370Z,3.37
2022-12-05T10:56:06.487Z,3.32
2022-12-05T10:59:12.855Z,3.30
2022-12-05T11:02:24.707Z,3.35
2022-12-05T11:05:35.351Z,3.32
2022-12-05T11:12:28.476Z,3.35
2022-12-05T11:15:33.159Z,3.38
2022-12-05T11:18:36.567Z,3.35
2022-12-05T11:21:44.783Z,3.36
2022-12-05T11:24:50.180Z,3.38
2022-12-05T11:28:26.574Z,3.37
2022-12-05T11:31:31.675Z,3.38
2022-12-05T11:34:42.415Z,3.43
2022-12-05T11:37:53.567Z,3.44
2022-12-05T11:41:31.058Z,3.44
2022-12-05T11:45:00.373Z,3.49
2022-12-05T11:48:34.724Z,3.47
2022-12-05T11:51:41.567Z,3.52
2022-12-05T11:55:08.914Z,3.53
2022-12-05T11:58:40.635Z,3.54
2022-12-05T12:01:57.046Z,3.45
2022-12-05T12:05:12.688Z,3.52
2022-12-05T12:08:24.559Z,3.51
2022-12-05T12:11:36.916Z,3.51
2022-12-05T12:14:52.053Z,3.52
2022-12-05T12:18:02.484Z,3.59
2022-12-05T12:21:17.773Z,3.60
2022-12-05T12:24:29.109Z,3.61
2022-12-05T12:27:45.939Z,3.67
2022-12-05T12:31:07.037Z,3.70
2022-12-05T12:34:34.428Z,3.61
2022-12-05T12:37:47.075Z,3.62
2022-12-05T12:40:54.461Z,3.59
2022-12-05T12:44:22.699Z,3.59
2022-12-05T12:47:40.289Z,3.54
2022-12-05T12:50:46.566Z,3.58
2022-12-05T12:54:12.441Z,3.61
2022-12-05T12:57:24.204Z,3.67
2022-12-05T13:00:45.983Z,3.68
2022-12-05T13:03:56.895Z,3.66
2022-12-05T13:07:07.783Z,3.74
2022-12-05T13:10:27.109Z,3.73
2022-12-05T13:13:38.412Z,3.75
2022-12-05T13:16:48.989Z,3.77
2022-12-05T13:19:54.821Z,3.77
2022-12-05T13:23:03.107Z,3.74
2022-12-05T13:26:12.222Z,3.79
2022-12-05T13:29:23.071Z,3.80
2022-12-05T13:32:31.927Z,3.80
2022-12-05T13:35:57.390Z,3.82
2022-12-05T13:39:21.361Z,3.87
2022-12-05T13:42:27.830Z,3.84
2022-12-05T13:45:34.639Z,3.87
2022-12-05T13:48:43.264Z,3.84
2022-12-05T13:51:50.415Z,3.83
2022-12-05T13:54:59.924Z,3.81
2022-12-05T13:58:07.213Z,3.81
2022-12-05T14:01:55.621Z,3.83
2022-12-05T14:05:00.893Z,3.82
2022-12-05T14:08:52.661Z,3.84
2022-12-05T14:12:47.613Z,3.85
2022-12-05T14:15:52.178Z,3.86
2022-12-05T14:19:04.651Z,3.85
2022-12-05T14:22:41.010Z,3.88
2022-12-05T14:26:08.550Z,3.88
2022-12-05T14:29:39.826Z,3.88
2022-12-05T14:32:44.183Z,3.92
2022-12-05T14:35:51.720Z,3.94
2022-12-05T14:38:56.237Z,3.97
2022-12-05T14:42:00.729Z,4.00
2022-12-05T14:45:26.376Z,3.89
2022-12-05T14:48:34.492Z,3.87
2022-12-05T14:51:57.247Z,3.85
2022-12-05T14:55:07.229Z,3.86
2022-12-05T14:58:21.129Z,3.86
2022-12-05T15:01:27.801Z,3.85
2022-12-05T15:04:37.534Z,3.87
2022-12-05T15:07:41.573Z,3.90
2022-12-05T15:10:52.565Z,3.93
2022-12-05T15:14:05.037Z,3.99
2022-12-05T15:17:18.608Z,3.99
2022-12-05T15:20:40.084Z,3.94
2022-12-05T15:23:49.576Z,3.95
2022-12-05T15:26:55.714Z,3.93
2022-12-05T15:29:58.708Z,3.93
2022-12-05T15:33:02.785Z,3.90
2022-12-05T15:36:06.986Z,3.91
2022-12-05T15:39:23.634Z,3.93
2022-12-05T15:42:31.589Z,3.93
2022-12-05T15:45:34.586Z,3.94
2022-12-05T15:48:39.927Z,3.94
2022-12-05T15:51:51.403Z,3.96
2022-12-05T15:54:55.295Z,3.96
2022-12-05T15:58:12.607Z,3.94
2022-12-05T16:01:21.176Z,3.92
2022-12-05T16:04:34.232Z,3.91
2022-12-05T16:07:37.369Z,3.87
2022-12-05T16:10:40.526Z,3.87
2022-12-05T16:13:49.234Z,3.89
2022-12-05T16:16:59.229Z,3.89
2022-12-05T16:20:26.332Z,3.90
2022-12-05T16:23:31.519Z,3.92
2022-12-05T16:26:40.308Z,3.93
2022-12-05T16:29:45.882Z,3.95
2022-12-05T16:32:52.061Z,3.97
2022-12-05T16:35:55.318Z,3.98
2022-12-05T16:39:04.180Z,3.95
2022-12-05T16:42:25.206Z,3.97
2022-12-05T16:45:42.372Z,4.00
2022-12-05T16:48:48.602Z,4.00
2022-12-05T16:52:01.577Z,4.00
2022-12-05T16:55:04.868Z,4.05
2022-12-05T16:58:13.091Z,4.07
2022-12-05T17:01:21.520Z,4.09
2022-12-05T17:04:24.715Z,4.07
2022-12-05T17:07:32.491Z,4.05
2022-12-05T17:10:40.613Z,4.08
2022-12-05T17:13:45.154Z,4.07
2022-12-05T17:16:49.552Z,4.09
2022-12-05T17:19:56.077Z,4.12
2022-12-05T17:22:59.089Z,4.15
2022-12-05T17:26:05.308Z,4.14
2022-12-05T17:29:08.748Z,4.11
2022-12-05T17:32:14.014Z,4.12
2022-12-05T17:35:22.001Z,4.14
2022-12-05T17:38:25.014Z,4.11
2022-12-05T17:41:28.090Z,4.13
2022-12-05T17:44:36.340Z,4.19
2022-12-05T17:47:40.887Z,4.23
2022-12-05T17:50:50.501Z,4.25
2022-12-05T17:53:57.041Z,4.27
2022-12-05T17:57:00.128Z,4.25
2022-12-05T18:00:04.892Z,4.24
2022-12-05T18:03:17.842Z,4.24
2022-12-05T18:06:22.451Z,4.22
2022-12-05T18:09:25.516Z,4.20
2022-12-05T18:12:28.729Z,4.25
2022-12-05T18:15:40.919Z,4.29
2022-12-05T18:18:47.249Z,4.27
2022-12-05T18:21:50.975Z,4.26
2022-12-05T18:24:55.392Z,4.30
2022-12-05T18:27:59.097Z,4.30
2022-12-05T18:31:16.871Z,4.29
2022-12-05T18:34:21.395Z,4.35
2022-12-05T18:37:24.516Z,4.38
2022-12-05T18:40:28.139Z,4.39
2022-12-05T18:43:32.195Z,4.37
2022-12-05T18:46:37.919Z,4.38
2022-12-05T18:49:45.405Z,4.39
2022-12-05T18:52:51.040Z,4.38
2022-12-05T18:59:20.207Z,4.38
2022-12-05T19:02:24.513Z,4.38
2022-12-05T19:05:34.260Z,4.43
2022-12-05T19:08:37.810Z,4.47
2022-12-05T19:11:47.186Z,4.45
2022-12-05T19:14:58.054Z,4.48
2022-12-05T19:18:03.392Z,4.45
2022-12-05T19:21:08.269Z,4.43
2022-12-05T19:24:16.916Z,4.42
2022-12-05T19:27:24.258Z,4.40
2022-12-05T19:30:27.189Z,4.39
2022-12-05T19:33:34.683Z,4.38
2022-12-05T19:36:42.598Z,4.39
2022-12-05T19:39:46.145Z,4.42
2022-12-05T19:42:49.749Z,4.42
2022-12-05T19:45:52.854Z,4.47
2022-12-05T19:48:57.417Z,4.47
2022-12-05T19:52:02.213Z,4.39
2022-12-05T19:55:06.006Z,4.42
2022-12-05T19:58:09.118Z,4.47
2022-12-05T20:01:14.996Z,4.44
2022-12-05T20:04:18.292Z,4.46
2022-12-05T20:07:26.766Z,4.48
2022-12-05T20:10:29.999Z,4.51
2022-12-05T20:13:48.998Z,4.51
2022-12-05T20:16:52.824Z,4.43
2022-12-05T20:19:56.220Z,4.35
2022-12-05T20:23:01.137Z,4.33
2022-12-05T20:26:09.854Z,4.37
2022-12-05T20:29:16.391Z,4.35
2022-12-05T20:32:19.417Z,4.35
2022-12-05T20:35:24.384Z,4.33
2022-12-05T20:38:33.919Z,4.25
2022-12-05T20:41:37.042Z,4.26
2022-12-05T20:44:40.055Z,4.22
2022-12-05T20:47:43.236Z,4.23
2022-12-05T20:50:46.697Z,4.18
2022-12-05T20:53:51.836Z,4.13
2022-12-05T20:56:54.812Z,4.10
2022-12-05T20:59:58.341Z,3.97
2022-12-05T21:03:01.682Z,3.90
2022-12-05T21:06:09.041Z,3.93
2022-12-05T21:09:19.687Z,3.89
2022-12-05T21:12:22.755Z,3.89
2022-12-05T21:15:25.811Z,3.88
2022-12-05T21:18:30.581Z,3.86
2022-12-05T21:21:34.525Z,3.84
2022-12-05T21:24:38.932Z,3.76
2022-12-05T21:27:41.965Z,3.76
2022-12-05T21:30:45.129Z,3.80
2022-12-05T21:33:50.792Z,3.85
2022-12-05T21:36:53.796Z,3.83
2022-12-05T21:39:58.371Z,3.75
2022-12-05T21:43:01.604Z,3.75
2022-12-05T21:46:05.570Z,3.77
2022-12-05T21:49:08.838Z,3.76
2022-12-05T21:52:11.865Z,3.74
2022-12-05T21:55:16.302Z,3.73
2022-12-05T21:58:20.178Z,3.76
2022-12-05T22:01:26.426Z,3.76
2022-12-05T22:04:29.486Z,3.82
2022-12-05T22:07:33.041Z,3.82
2022-12-05T22:10:37.434Z,3.81
2022-12-05T22:13:42.955Z,3.82
2022-12-05T22:16:46.016Z,3.79
2022-12-05T22:19:57.444Z,3.81
2022-12-05T22:23:00.935Z,3.82
2022-12-05T22:26:07.872Z,3.85
2022-12-05T22:29:11.242Z,3.86
2022-12-05T22:32:14.392Z,3.74
2022-12-05T22:35:17.738Z,3.72
2022-12-05T22:38:20.953Z,3.64
2022-12-05T22:41:27.821Z,3.60
2022-12-05T22:44:31.005Z,3.54
2022-12-05T22:47:34.092Z,3.54
2022-12-05T22:50:37.249Z,3.59
2022-12-05T22:53:40.801Z,3.64
2022-12-05T22:56:45.477Z,3.63
2022-12-05T22:59:48.835Z,3.59
2022-12-05T23:02:53.663Z,3.60
2022-12-05T23:05:57.191Z,3.60
2022-12-05T23:09:02.558Z,3.60
2022-12-05T23:12:08.123Z,3.47
2022-12-05T23:15:13.257Z,3.53
2022-12-05T23:18:16.762Z,3.48
2022-12-05T23:21:28.011Z,3.42
2022-12-05T23:24:31.932Z,3.43
2022-12-05T23:27:37.547Z,3.48
2022-12-05T23:30:40.540Z,3.50
2022-12-05T23:33:43.749Z,3.53
2022-12-05T23:36:48.806Z,3.55
2022-12-05T23:39:51.896Z,3.50
2022-12-05T23:42:56.234Z,3.42
2022-12-05T23:45:59.644Z,3.45
2022-12-05T23:49:10.071Z,3.43
2022-12-05T23:52:21.126Z,3.40
2022-12-05T23:55:24.428Z,3.41
2022-12-05T23:58:30.244Z,3.28
